Time;durP1;ratioP1;P1;durP2;ratioP2;P2;SDS_P1;SDS_P2;PMS_P1;PMS_P2;Temp;Humidity;BMP_temperature;BMP_pressure;BME280_temperature;BME280_humidity;BME280_pressure;Samples;Min_cycle;Max_cycle;Signal;HPM_P1;HPM_P2
2021/03/29 00:01:09;;;;;;;9.63;2.50;;;;;;;;;;5085885;28;20473;-68
2021/03/29 00:03:35;;;;;;;8.93;2.83;;;;;;;;;;5085597;28;20047;-68
2021/03/29 00:06:00;;;;;;;9.27;2.63;;;;;;;;;;5089398;28;20031;-68
2021/03/29 00:08:27;;;;;;;6.83;2.83;;;;;;;;;;5089020;28;20070;-68
2021/03/29 00:10:54;;;;;;;9.50;2.73;;;;;;;;;;5086928;28;20020;-68
2021/03/29 00:13:20;;;;;;;7.70;2.50;;;;;;;;;;5085243;28;20028;-68
2021/03/29 00:15:48;;;;;;;7.40;2.57;;;;;;;;;;5088236;28;20035;-68
2021/03/29 00:18:14;;;;;;;5.93;2.20;;;;;;;;;;5090612;28;20361;-68
2021/03/29 00:20:44;;;;;;;5.73;2.17;;;;;;;;;;5087268;28;20066;-68
2021/03/29 00:23:10;;;;;;;5.40;2.10;;;;;;;;;;5092493;28;20023;-68
2021/03/29 00:25:35;;;;;;;6.03;1.87;;;;;;;;;;5089933;28;20024;-68
2021/03/29 00:28:00;;;;;;;7.73;2.53;;;;;;;;;;5091193;28;20028;-68
2021/03/29 00:30:28;;;;;;;7.07;2.17;;;;;;;;;;5091193;28;20024;-68
2021/03/29 00:32:54;;;;;;;6.53;2.40;;;;;;;;;;5092098;28;20448;-68
2021/03/29 00:35:21;;;;;;;6.37;2.40;;;;;;;;;;5089513;28;20024;-68
2021/03/29 00:37:57;;;;;;;8.53;2.70;;;;;;;;;;5093272;28;20057;-68
2021/03/29 00:40:23;;;;;;;7.70;1.80;;;;;;;;;;5087275;28;20024;-68
2021/03/29 00:42:49;;;;;;;4.57;1.97;;;;;;;;;;5092973;28;20028;-68
2021/03/29 00:45:17;;;;;;;7.47;2.00;;;;;;;;;;5085078;28;20349;-68
2021/03/29 00:47:42;;;;;;;8.13;2.10;;;;;;;;;;5088948;28;20475;-68
2021/03/29 00:50:11;;;;;;;9.23;2.40;;;;;;;;;;5089496;28;20020;-68
2021/03/29 00:52:38;;;;;;;5.13;2.10;;;;;;;;;;5088579;28;20027;-68
2021/03/29 00:55:04;;;;;;;4.77;1.93;;;;;;;;;;5087441;28;20020;-68
2021/03/29 00:57:30;;;;;;;9.80;2.63;;;;;;;;;;5089722;28;20032;-68
2021/03/29 00:59:56;;;;;;;8.37;2.30;;;;;;;;;;5092321;28;20032;-68
2021/03/29 01:02:22;;;;;;;7.50;2.30;;;;;;;;;;5091588;28;20103;-68
2021/03/29 01:04:47;;;;;;;6.17;2.20;;;;;;;;;;5090640;28;20044;-68
2021/03/29 01:07:13;;;;;;;8.10;2.20;;;;;;;;;;5090120;28;20523;-68
2021/03/29 01:09:38;;;;;;;7.73;2.37;;;;;;;;;;5089662;28;20373;-68
2021/03/29 01:12:06;;;;;;;8.23;2.30;;;;;;;;;;5091971;28;20054;-68
2021/03/29 01:14:39;;;;;;;6.17;2.37;;;;;;;;;;5085944;28;20028;-68
2021/03/29 01:17:05;;;;;;;9.00;2.17;;;;;;;;;;5090185;28;20440;-68
2021/03/29 01:19:30;;;;;;;7.57;2.30;;;;;;;;;;5091348;28;20056;-68
2021/03/29 01:21:59;;;;;;;7.23;2.07;;;;;;;;;;5091403;28;20032;-68
2021/03/29 01:24:24;;;;;;;7.77;2.10;;;;;;;;;;5086339;28;20452;-68
2021/03/29 01:26:50;;;;;;;7.60;2.50;;;;;;;;;;5091120;28;20210;-68
2021/03/29 01:29:16;;;;;;;8.67;2.37;;;;;;;;;;5088674;28;20051;-68
2021/03/29 01:31:42;;;;;;;9.73;1.97;;;;;;;;;;5091170;28;20108;-68
2021/03/29 01:34:08;;;;;;;8.50;2.23;;;;;;;;;;5091257;28;20020;-67
2021/03/29 01:36:33;;;;;;;8.73;2.13;;;;;;;;;;5088111;28;20020;-68
2021/03/29 01:38:59;;;;;;;6.83;2.20;;;;;;;;;;5088350;28;20070;-68
2021/03/29 01:41:24;;;;;;;4.60;1.83;;;;;;;;;;5091164;28;20063;-68
2021/03/29 01:43:50;;;;;;;9.07;2.27;;;;;;;;;;5089657;28;20024;-68
2021/03/29 01:46:18;;;;;;;6.03;2.03;;;;;;;;;;5087734;28;20456;-68
2021/03/29 01:48:44;;;;;;;6.63;2.67;;;;;;;;;;5089355;28;20633;-68
2021/03/29 01:51:10;;;;;;;9.60;2.43;;;;;;;;;;5090114;28;20032;-68
2021/03/29 01:53:36;;;;;;;8.90;1.83;;;;;;;;;;5087549;28;20668;-68
2021/03/29 01:56:01;;;;;;;10.10;2.07;;;;;;;;;;5092135;28;20023;-68
2021/03/29 01:58:26;;;;;;;8.27;2.20;;;;;;;;;;5089882;28;20460;-68
2021/03/29 02:00:54;;;;;;;5.63;1.60;;;;;;;;;;5089446;28;20047;-68
2021/03/29 02:03:20;;;;;;;10.33;2.87;;;;;;;;;;5088811;28;20126;-68
2021/03/29 02:05:46;;;;;;;4.93;1.77;;;;;;;;;;5088966;28;20103;-68
2021/03/29 02:08:11;;;;;;;6.13;1.40;;;;;;;;;;5090594;28;20031;-68
2021/03/29 02:10:38;;;;;;;5.47;1.90;;;;;;;;;;5091088;28;20416;-68
2021/03/29 02:13:07;;;;;;;7.03;1.80;;;;;;;;;;5070710;28;20024;-68
2021/03/29 02:15:33;;;;;;;9.07;2.40;;;;;;;;;;5089750;28;20043;-67
2021/03/29 02:17:59;;;;;;;6.43;1.73;;;;;;;;;;5089829;28;20065;-68
2021/03/29 02:20:26;;;;;;;9.17;1.73;;;;;;;;;;5091194;28;20067;-68
2021/03/29 02:22:52;;;;;;;4.73;1.73;;;;;;;;;;5089283;28;20156;-68
2021/03/29 02:25:17;;;;;;;7.00;1.60;;;;;;;;;;5089395;28;20115;-68
2021/03/29 02:27:47;;;;;;;7.43;2.13;;;;;;;;;;5086218;28;20626;-68
2021/03/29 02:30:13;;;;;;;7.87;1.70;;;;;;;;;;5089153;28;20020;-68
2021/03/29 02:32:42;;;;;;;9.77;1.70;;;;;;;;;;5088347;28;20167;-68
2021/03/29 02:35:09;;;;;;;6.03;1.73;;;;;;;;;;5085836;28;20112;-68
2021/03/29 02:37:34;;;;;;;8.30;2.33;;;;;;;;;;5089844;28;20028;-68
2021/03/29 02:39:59;;;;;;;10.93;2.00;;;;;;;;;;5090385;28;20376;-68
2021/03/29 02:42:25;;;;;;;6.13;2.00;;;;;;;;;;5087076;28;20392;-68
2021/03/29 02:44:50;;;;;;;7.70;2.30;;;;;;;;;;5087792;28;20054;-68
2021/03/29 02:47:16;;;;;;;10.97;2.23;;;;;;;;;;5086095;28;20512;-68
2021/03/29 02:49:41;;;;;;;6.70;1.63;;;;;;;;;;5087171;28;20095;-68
2021/03/29 02:52:07;;;;;;;4.30;1.70;;;;;;;;;;5087744;28;20020;-68
2021/03/29 02:54:32;;;;;;;6.97;2.00;;;;;;;;;;5087020;28;20409;-68
2021/03/29 02:56:58;;;;;;;7.07;1.63;;;;;;;;;;5089792;28;20055;-68
2021/03/29 02:59:25;;;;;;;7.43;1.43;;;;;;;;;;5083724;28;20024;-68
2021/03/29 03:01:50;;;;;;;7.90;1.50;;;;;;;;;;5087514;28;20081;-68
2021/03/29 03:04:16;;;;;;;9.27;2.10;;;;;;;;;;5089216;28;20040;-68
2021/03/29 03:06:44;;;;;;;4.77;1.50;;;;;;;;;;5087260;28;20077;-68
2021/03/29 03:09:10;;;;;;;6.07;1.80;;;;;;;;;;5090499;28;20048;-68
2021/03/29 03:11:35;;;;;;;15.43;2.63;;;;;;;;;;5085871;28;20499;-68
2021/03/29 03:14:04;;;;;;;7.23;2.00;;;;;;;;;;5090208;28;20043;-68
2021/03/29 03:16:31;;;;;;;9.10;2.13;;;;;;;;;;5089315;28;20020;-68
2021/03/29 03:18:56;;;;;;;21.70;1.70;;;;;;;;;;5085784;28;20040;-68
2021/03/29 03:21:21;;;;;;;7.53;1.93;;;;;;;;;;5086158;28;20388;-68
2021/03/29 03:23:57;;;;;;;5.70;2.33;;;;;;;;;;5084638;28;20028;-68
2021/03/29 03:26:23;;;;;;;5.27;1.50;;;;;;;;;;5090838;28;20505;-68
2021/03/29 03:28:48;;;;;;;6.37;1.43;;;;;;;;;;5087466;28;20085;-68
2021/03/29 03:31:14;;;;;;;9.27;2.43;;;;;;;;;;5083358;28;20028;-68
2021/03/29 03:33:39;;;;;;;5.87;1.70;;;;;;;;;;5084667;28;20484;-68
2021/03/29 03:36:05;;;;;;;7.87;1.60;;;;;;;;;;5088740;28;20039;-68
2021/03/29 03:38:32;;;;;;;5.13;1.50;;;;;;;;;;5087432;28;20102;-68
2021/03/29 03:41:01;;;;;;;4.50;1.60;;;;;;;;;;5088027;28;20024;-68
2021/03/29 03:43:27;;;;;;;6.20;1.87;;;;;;;;;;5079915;28;20129;-68
2021/03/29 03:45:57;;;;;;;6.40;1.83;;;;;;;;;;5086021;28;20024;-67
2021/03/29 03:48:23;;;;;;;5.47;1.57;;;;;;;;;;5086262;28;20020;-68
2021/03/29 03:50:49;;;;;;;9.80;2.00;;;;;;;;;;5086904;28;20484;-68
2021/03/29 03:53:15;;;;;;;6.43;1.70;;;;;;;;;;5088302;28;20139;-68
2021/03/29 03:55:41;;;;;;;6.43;1.30;;;;;;;;;;5091485;28;20024;-68
2021/03/29 03:58:07;;;;;;;3.73;1.77;;;;;;;;;;5088593;28;20047;-68
2021/03/29 04:00:32;;;;;;;7.23;2.00;;;;;;;;;;5091820;28;20028;-68
2021/03/29 04:02:58;;;;;;;6.13;1.93;;;;;;;;;;5088423;28;20401;-68
2021/03/29 04:05:23;;;;;;;4.13;1.60;;;;;;;;;;5091857;28;20103;-68
2021/03/29 04:07:52;;;;;;;8.03;2.27;;;;;;;;;;5093069;28;20012;-68
2021/03/29 04:12:46;;;;;;;4.17;1.50;;;;;;;;;;5090824;28;20024;-68
2021/03/29 04:15:12;;;;;;;6.27;1.50;;;;;;;;;;5091101;28;20053;-68
2021/03/29 04:17:37;;;;;;;6.03;2.43;;;;;;;;;;5089650;28;20459;-68
2021/03/29 04:20:04;;;;;;;4.00;1.40;;;;;;;;;;5090169;28;20028;-68
2021/03/29 04:22:29;;;;;;;5.30;1.63;;;;;;;;;;5088856;28;20020;-68
2021/03/29 04:24:55;;;;;;;6.43;1.90;;;;;;;;;;5088352;28;20031;-69
2021/03/29 04:27:20;;;;;;;7.77;2.07;;;;;;;;;;5092743;28;20054;-68
2021/03/29 04:29:46;;;;;;;8.63;1.90;;;;;;;;;;5090779;28;20028;-68
2021/03/29 04:32:11;;;;;;;4.03;1.80;;;;;;;;;;5088893;28;20024;-68
2021/03/29 04:34:36;;;;;;;16.37;1.97;;;;;;;;;;5090003;28;20480;-68
2021/03/29 04:37:02;;;;;;;11.13;2.80;;;;;;;;;;5092839;28;20070;-68
2021/03/29 04:39:27;;;;;;;6.27;1.90;;;;;;;;;;5088830;28;20031;-68
2021/03/29 04:41:52;;;;;;;5.27;1.80;;;;;;;;;;5091444;28;20032;-68
2021/03/29 04:44:18;;;;;;;6.63;1.50;;;;;;;;;;5092344;28;20384;-68
2021/03/29 04:46:43;;;;;;;9.07;1.90;;;;;;;;;;5089374;28;20032;-68
2021/03/29 04:49:08;;;;;;;9.23;2.03;;;;;;;;;;5090185;28;20456;-68
2021/03/29 04:51:33;;;;;;;9.23;1.40;;;;;;;;;;5091641;28;20052;-68
2021/03/29 04:53:59;;;;;;;9.33;2.93;;;;;;;;;;5090144;28;20036;-68
2021/03/29 04:56:24;;;;;;;11.00;2.30;;;;;;;;;;5086446;28;20482;-68
2021/03/29 04:58:49;;;;;;;9.50;2.23;;;;;;;;;;5092487;28;20035;-68
2021/03/29 05:01:15;;;;;;;6.57;2.40;;;;;;;;;;5088612;28;20067;-68
2021/03/29 05:03:40;;;;;;;8.43;1.97;;;;;;;;;;5089800;28;20048;-68
2021/03/29 05:06:05;;;;;;;5.50;2.20;;;;;;;;;;5088758;28;20024;-68
2021/03/29 05:08:30;;;;;;;5.53;2.13;;;;;;;;;;5089976;28;20027;-67
2021/03/29 05:10:56;;;;;;;6.70;1.67;;;;;;;;;;5088587;28;20093;-67
2021/03/29 05:13:21;;;;;;;5.87;2.07;;;;;;;;;;5089280;28;20032;-68
2021/03/29 05:15:47;;;;;;;5.93;1.87;;;;;;;;;;5089747;28;20069;-68
2021/03/29 05:18:13;;;;;;;5.80;2.03;;;;;;;;;;5090957;28;20020;-68
2021/03/29 05:20:38;;;;;;;7.23;2.10;;;;;;;;;;5090294;28;20039;-68
2021/03/29 05:23:03;;;;;;;6.03;1.90;;;;;;;;;;5088877;28;21637;-68
2021/03/29 05:25:29;;;;;;;9.70;2.50;;;;;;;;;;5089240;28;20350;-68
2021/03/29 05:27:54;;;;;;;5.20;1.60;;;;;;;;;;5091572;28;20396;-68
2021/03/29 05:30:20;;;;;;;7.97;2.00;;;;;;;;;;5089381;28;20027;-68
2021/03/29 05:32:45;;;;;;;8.87;1.90;;;;;;;;;;5096266;28;20052;-68
2021/03/29 05:35:10;;;;;;;8.20;2.83;;;;;;;;;;5092497;28;20028;-68
2021/03/29 05:37:36;;;;;;;5.60;1.67;;;;;;;;;;5089598;28;20119;-67
2021/03/29 05:40:01;;;;;;;6.90;1.80;;;;;;;;;;5088302;28;20168;-68
2021/03/29 05:42:27;;;;;;;12.53;2.57;;;;;;;;;;5091309;28;20031;-68
2021/03/29 05:44:58;;;;;;;7.07;2.27;;;;;;;;;;5092553;28;20047;-68
2021/03/29 05:47:24;;;;;;;5.60;1.50;;;;;;;;;;5089391;28;20520;-68
2021/03/29 05:49:49;;;;;;;10.30;2.03;;;;;;;;;;5091910;28;20082;-67
2021/03/29 05:52:14;;;;;;;4.83;1.60;;;;;;;;;;5090503;28;20380;-67
2021/03/29 05:54:40;;;;;;;6.20;2.10;;;;;;;;;;5089932;28;20085;-67
2021/03/29 05:57:06;;;;;;;7.97;2.20;;;;;;;;;;5092149;28;20049;-67
2021/03/29 05:59:40;;;;;;;5.37;1.97;;;;;;;;;;5091423;28;20031;-67
2021/03/29 06:02:06;;;;;;;9.93;2.17;;;;;;;;;;5087568;28;20020;-67
2021/03/29 06:04:47;;;;;;;6.97;1.60;;;;;;;;;;5078312;28;20040;-67
2021/03/29 06:07:20;;;;;;;7.80;1.63;;;;;;;;;;5085011;28;20058;-67
2021/03/29 06:09:46;;;;;;;6.27;1.60;;;;;;;;;;5090425;28;20020;-67
2021/03/29 06:12:12;;;;;;;7.00;1.63;;;;;;;;;;5085280;28;20197;-67
2021/03/29 06:14:38;;;;;;;6.37;2.13;;;;;;;;;;5090687;28;20480;-67
2021/03/29 06:17:03;;;;;;;4.43;1.80;;;;;;;;;;5090922;28;20062;-67
2021/03/29 06:19:36;;;;;;;7.13;1.40;;;;;;;;;;5089204;28;20130;-67
2021/03/29 06:22:06;;;;;;;6.47;1.77;;;;;;;;;;5087755;28;20031;-67
2021/03/29 06:24:49;;;;;;;5.63;1.60;;;;;;;;;;5089463;28;20065;-67
2021/03/29 06:27:14;;;;;;;4.47;1.80;;;;;;;;;;5072328;28;20028;-67
2021/03/29 06:29:40;;;;;;;6.60;1.60;;;;;;;;;;5088715;28;20027;-67
2021/03/29 06:32:05;;;;;;;7.00;2.00;;;;;;;;;;5085918;28;20111;-67
2021/03/29 06:34:31;;;;;;;7.00;1.50;;;;;;;;;;5089540;28;20077;-67
2021/03/29 06:37:05;;;;;;;9.20;1.87;;;;;;;;;;5086862;28;20380;-67
2021/03/29 06:39:34;;;;;;;6.00;1.53;;;;;;;;;;5089021;28;20032;-67
2021/03/29 06:41:59;;;;;;;8.90;2.07;;;;;;;;;;5087754;28;20024;-67
2021/03/29 06:44:30;;;;;;;6.17;1.40;;;;;;;;;;5086596;28;20016;-67
2021/03/29 06:47:05;;;;;;;6.37;1.40;;;;;;;;;;5082891;28;20387;-67
2021/03/29 06:49:46;;;;;;;9.03;1.60;;;;;;;;;;5084879;28;20016;-67
2021/03/29 06:52:38;;;;;;;7.80;1.80;;;;;;;;;;5080774;28;20024;-67
2021/03/29 06:55:15;;;;;;;2.93;1.20;;;;;;;;;;5077854;28;20043;-67
2021/03/29 06:57:41;;;;;;;8.33;1.43;;;;;;;;;;5082236;28;20609;-67
2021/03/29 07:00:11;;;;;;;5.17;1.77;;;;;;;;;;5083491;28;20024;-67
2021/03/29 07:02:36;;;;;;;5.97;1.20;;;;;;;;;;5085442;28;20030;-68
2021/03/29 07:05:02;;;;;;;4.07;1.30;;;;;;;;;;5089536;28;20107;-68
2021/03/29 07:07:28;;;;;;;7.57;1.90;;;;;;;;;;5088030;28;20066;-68
2021/03/29 07:09:54;;;;;;;4.60;1.57;;;;;;;;;;5087640;28;20073;-68
2021/03/29 07:12:21;;;;;;;7.67;1.63;;;;;;;;;;5087162;28;20407;-68
2021/03/29 07:14:48;;;;;;;5.53;2.00;;;;;;;;;;5090508;28;20527;-67
2021/03/29 07:17:15;;;;;;;6.93;1.50;;;;;;;;;;5090314;28;20016;-67
2021/03/29 07:19:41;;;;;;;7.43;2.00;;;;;;;;;;5088973;28;20464;-67
2021/03/29 07:22:07;;;;;;;2.90;1.30;;;;;;;;;;5077725;28;20027;-67
2021/03/29 07:24:32;;;;;;;6.47;2.17;;;;;;;;;;5091355;28;20089;-67
2021/03/29 07:26:58;;;;;;;5.87;1.80;;;;;;;;;;5089037;28;20016;-67
2021/03/29 07:29:26;;;;;;;7.57;2.10;;;;;;;;;;5083014;28;20072;-68
2021/03/29 07:31:53;;;;;;;7.40;1.90;;;;;;;;;;5095538;28;20388;-68
2021/03/29 07:34:38;;;;;;;6.30;1.90;;;;;;;;;;5091549;28;20058;-68
2021/03/29 07:37:23;;;;;;;3.80;1.60;;;;;;;;;;5084680;28;20029;-68
2021/03/29 07:39:48;;;;;;;6.57;2.00;;;;;;;;;;5080641;28;20027;-68
2021/03/29 07:42:23;;;;;;;7.43;1.53;;;;;;;;;;5084138;28;20032;-67
2021/03/29 07:44:52;;;;;;;6.07;1.73;;;;;;;;;;5086938;28;20069;-68
2021/03/29 07:47:44;;;;;;;12.27;1.80;;;;;;;;;;5083254;28;20102;-68
2021/03/29 07:50:24;;;;;;;5.77;1.87;;;;;;;;;;5085386;28;20392;-69
2021/03/29 07:52:51;;;;;;;3.67;1.37;;;;;;;;;;5090762;28;20035;-69
2021/03/29 07:55:29;;;;;;;5.27;1.60;;;;;;;;;;5091101;28;20027;-68
2021/03/29 07:57:55;;;;;;;4.20;1.70;;;;;;;;;;5090547;28;20027;-71
2021/03/29 08:00:23;;;;;;;6.27;1.57;;;;;;;;;;5090289;28;20377;-73
2021/03/29 08:02:52;;;;;;;4.57;1.50;;;;;;;;;;5085771;28;20029;-73
2021/03/29 08:05:36;;;;;;;2.27;1.00;;;;;;;;;;5085168;28;20028;-73
2021/03/29 08:08:03;;;;;;;5.23;1.27;;;;;;;;;;5083305;28;20499;-72
2021/03/29 08:10:47;;;;;;;6.50;1.60;;;;;;;;;;5085861;28;20016;-74
2021/03/29 08:13:33;;;;;;;4.87;1.40;;;;;;;;;;5090492;28;20016;-74
2021/03/29 08:16:03;;;;;;;4.13;1.77;;;;;;;;;;5085826;28;20117;-74
2021/03/29 08:18:29;;;;;;;5.67;1.53;;;;;;;;;;5078046;28;20050;-73
2021/03/29 08:20:54;;;;;;;7.53;1.93;;;;;;;;;;5082907;28;20103;-73
2021/03/29 08:23:30;;;;;;;7.63;1.70;;;;;;;;;;5074670;28;20021;-74
2021/03/29 08:26:25;;;;;;;5.47;1.60;;;;;;;;;;5089836;28;20024;-73
2021/03/29 08:29:08;;;;;;;6.43;1.93;;;;;;;;;;5065777;28;20166;-74
2021/03/29 08:31:52;;;;;;;6.20;1.97;;;;;;;;;;5087468;28;20070;-75
2021/03/29 08:34:18;;;;;;;4.80;1.50;;;;;;;;;;5085147;28;20020;-77
2021/03/29 08:36:43;;;;;;;8.57;2.10;;;;;;;;;;5087521;28;20043;-75
2021/03/29 08:39:09;;;;;;;3.03;1.27;;;;;;;;;;5088291;28;20024;-75
2021/03/29 08:41:34;;;;;;;5.40;1.73;;;;;;;;;;5092489;28;20032;-74
2021/03/29 08:44:02;;;;;;;5.93;1.60;;;;;;;;;;5087592;28;20056;-74
2021/03/29 08:46:30;;;;;;;5.57;1.60;;;;;;;;;;5093807;28;20016;-74
2021/03/29 08:48:55;;;;;;;4.80;1.43;;;;;;;;;;5094396;28;20066;-75
2021/03/29 08:51:21;;;;;;;6.70;1.73;;;;;;;;;;5094646;28;20056;-73
2021/03/29 08:53:46;;;;;;;5.93;1.47;;;;;;;;;;5093981;28;20375;-74
2021/03/29 08:56:12;;;;;;;6.37;1.50;;;;;;;;;;5094092;28;20031;-76
2021/03/29 08:58:37;;;;;;;4.67;1.50;;;;;;;;;;5084272;28;20024;-76
2021/03/29 09:01:02;;;;;;;5.63;1.77;;;;;;;;;;5090233;28;20073;-74
2021/03/29 09:03:28;;;;;;;4.43;1.60;;;;;;;;;;5075034;28;20048;-75
2021/03/29 09:05:53;;;;;;;5.20;1.30;;;;;;;;;;5093412;28;20368;-74
2021/03/29 09:08:19;;;;;;;5.47;1.40;;;;;;;;;;5085397;28;20354;-75
2021/03/29 09:10:44;;;;;;;5.87;1.43;;;;;;;;;;5093395;28;20016;-74
2021/03/29 09:13:10;;;;;;;5.40;1.80;;;;;;;;;;5083877;28;20094;-75
2021/03/29 09:15:36;;;;;;;3.20;1.40;;;;;;;;;;5088420;28;20143;-74
2021/03/29 09:18:18;;;;;;;3.30;1.25;;;;;;;;;;5094924;28;20024;-73
2021/03/29 09:20:48;;;;;;;6.35;1.58;;;;;;;;;;5090690;28;20170;-73
2021/03/29 09:23:14;;;;;;;6.43;2.03;;;;;;;;;;5081632;28;20183;-73
2021/03/29 09:25:41;;;;;;;5.43;1.43;;;;;;;;;;5086370;28;20020;-74
2021/03/29 09:31:00;;;;;;;5.60;1.53;;;;;;;;;;5092166;28;20016;-71
2021/03/29 09:33:26;;;;;;;6.40;1.75;;;;;;;;;;5089037;28;20523;-70
2021/03/29 09:35:52;;;;;;;5.73;1.60;;;;;;;;;;5091891;28;20024;-70
2021/03/29 09:38:30;;;;;;;5.28;1.80;;;;;;;;;;5091285;28;20388;-70
2021/03/29 09:40:55;;;;;;;5.97;1.58;;;;;;;;;;5083381;28;20534;-70
2021/03/29 09:43:21;;;;;;;6.07;1.52;;;;;;;;;;5086996;28;20028;-69
2021/03/29 09:45:47;;;;;;;3.85;1.50;;;;;;;;;;5089427;28;20016;-69
2021/03/29 09:48:12;;;;;;;5.90;2.03;;;;;;;;;;5093048;28;20035;-69
2021/03/29 09:50:39;;;;;;;5.47;1.53;;;;;;;;;;5093133;28;20024;-69
2021/03/29 09:53:15;;;;;;;5.00;1.60;;;;;;;;;;5088233;28;20260;-69
2021/03/29 09:55:48;;;;;;;3.07;1.30;;;;;;;;;;5090041;28;20421;-69
2021/03/29 09:58:24;;;;;;;6.33;1.83;;;;;;;;;;5093558;28;20020;-69
2021/03/29 10:00:50;;;;;;;5.87;1.53;;;;;;;;;;5093010;28;20535;-68
2021/03/29 10:03:17;;;;;;;5.40;1.90;;;;;;;;;;5092700;28;20048;-68
2021/03/29 10:05:42;;;;;;;5.38;1.60;;;;;;;;;;5090658;28;20032;-69
2021/03/29 10:08:08;;;;;;;6.43;1.40;;;;;;;;;;5080397;28;20357;-68
2021/03/29 10:10:33;;;;;;;4.17;1.40;;;;;;;;;;5093229;28;20034;-68
2021/03/29 10:13:08;;;;;;;3.80;1.40;;;;;;;;;;5093273;28;20468;-68
2021/03/29 10:15:34;;;;;;;4.33;1.43;;;;;;;;;;5091868;28;20383;-68
2021/03/29 10:18:06;;;;;;;5.73;1.50;;;;;;;;;;5093145;28;20020;-68
2021/03/29 10:20:33;;;;;;;6.17;1.70;;;;;;;;;;5092918;28;20529;-68
2021/03/29 10:23:18;;;;;;;6.23;1.97;;;;;;;;;;5092510;28;20027;-69
2021/03/29 10:25:43;;;;;;;4.60;1.47;;;;;;;;;;5090982;28;20119;-69
2021/03/29 10:28:17;;;;;;;3.87;1.40;;;;;;;;;;5092266;28;20165;-69
2021/03/29 10:30:42;;;;;;;8.27;1.80;;;;;;;;;;5088551;28;20024;-68
2021/03/29 10:33:08;;;;;;;6.40;1.90;;;;;;;;;;5088327;28;20186;-68
2021/03/29 10:35:33;;;;;;;3.93;1.57;;;;;;;;;;5089581;28;20400;-69
2021/03/29 10:38:01;;;;;;;4.50;1.40;;;;;;;;;;5066972;28;20111;-68
2021/03/29 10:40:27;;;;;;;5.60;1.83;;;;;;;;;;5085288;28;20035;-69
2021/03/29 10:42:52;;;;;;;5.47;2.00;;;;;;;;;;5080515;28;20024;-69
2021/03/29 10:45:18;;;;;;;7.80;1.60;;;;;;;;;;5092093;28;20024;-68
2021/03/29 10:47:44;;;;;;;8.53;2.10;;;;;;;;;;5089446;28;20024;-69
2021/03/29 10:50:11;;;;;;;5.03;1.87;;;;;;;;;;5090773;28;20027;-69
2021/03/29 10:52:36;;;;;;;4.33;1.40;;;;;;;;;;5090940;28;20369;-68
2021/03/29 10:55:02;;;;;;;6.63;2.00;;;;;;;;;;5079350;28;20034;-69
2021/03/29 10:57:27;;;;;;;6.40;1.97;;;;;;;;;;5082597;28;20024;-69
2021/03/29 10:59:53;;;;;;;6.87;2.20;;;;;;;;;;5087685;28;20031;-68
2021/03/29 11:02:18;;;;;;;3.27;1.50;;;;;;;;;;5081303;28;20482;-68
2021/03/29 11:04:43;;;;;;;6.40;1.90;;;;;;;;;;5090992;28;20070;-69
2021/03/29 11:07:09;;;;;;;5.70;1.73;;;;;;;;;;5091524;28;20392;-69
2021/03/29 11:09:34;;;;;;;8.33;2.67;;;;;;;;;;5089047;28;20036;-69
2021/03/29 11:11:59;;;;;;;6.90;1.80;;;;;;;;;;5092241;28;20057;-68
2021/03/29 11:14:25;;;;;;;5.23;1.97;;;;;;;;;;5090178;28;20035;-69
2021/03/29 11:16:52;;;;;;;5.73;1.87;;;;;;;;;;5091195;28;20392;-69
2021/03/29 11:19:18;;;;;;;5.57;1.63;;;;;;;;;;5088682;28;20032;-69
2021/03/29 11:21:43;;;;;;;4.37;1.53;;;;;;;;;;5081788;28;20072;-69
2021/03/29 11:24:10;;;;;;;7.60;1.80;;;;;;;;;;5085928;28;20035;-69
2021/03/29 11:26:36;;;;;;;6.00;1.97;;;;;;;;;;5091962;28;20016;-69
2021/03/29 11:29:01;;;;;;;6.93;2.17;;;;;;;;;;5090618;28;20031;-69
2021/03/29 11:31:27;;;;;;;5.53;2.13;;;;;;;;;;5090763;28;20371;-68
2021/03/29 11:33:52;;;;;;;6.57;2.13;;;;;;;;;;5091384;28;20464;-69
2021/03/29 11:36:18;;;;;;;5.77;1.60;;;;;;;;;;5084270;28;20021;-69
2021/03/29 11:38:43;;;;;;;4.80;2.07;;;;;;;;;;5090851;28;20115;-69
2021/03/29 11:41:09;;;;;;;4.83;2.00;;;;;;;;;;5091262;28;20031;-68
2021/03/29 11:43:34;;;;;;;5.20;1.90;;;;;;;;;;5089567;28;20035;-69
2021/03/29 11:45:59;;;;;;;5.17;1.67;;;;;;;;;;5090654;28;20062;-69
2021/03/29 11:48:25;;;;;;;4.00;1.50;;;;;;;;;;5091241;28;20043;-68
2021/03/29 11:50:50;;;;;;;6.97;2.23;;;;;;;;;;5091544;28;20032;-69
2021/03/29 11:53:18;;;;;;;6.00;1.90;;;;;;;;;;5085832;28;20476;-68
2021/03/29 11:55:43;;;;;;;4.63;1.73;;;;;;;;;;5088399;28;20062;-69
2021/03/29 11:58:08;;;;;;;8.33;2.30;;;;;;;;;;5077790;28;20056;-69
2021/03/29 12:00:50;;;;;;;5.70;1.60;;;;;;;;;;5091166;28;20035;-68
2021/03/29 12:06:25;;;;;;;5.27;1.77;;;;;;;;;;5088546;28;20036;-69
2021/03/29 12:13:53;;;;;;;8.83;2.10;;;;;;;;;;5093069;28;20077;-68
2021/03/29 12:16:19;;;;;;;5.47;2.10;;;;;;;;;;5094868;28;20057;-69
2021/03/29 12:18:48;;;;;;;4.23;1.50;;;;;;;;;;5093483;28;20136;-69
2021/03/29 12:21:16;;;;;;;5.80;2.20;;;;;;;;;;5091785;28;20035;-69
2021/03/29 12:23:44;;;;;;;6.47;2.33;;;;;;;;;;5094494;28;20476;-69
2021/03/29 12:26:09;;;;;;;4.22;1.80;;;;;;;;;;5095147;28;20024;-69
2021/03/29 12:28:36;;;;;;;6.90;2.20;;;;;;;;;;5092102;28;20383;-69
2021/03/29 12:31:01;;;;;;;6.05;1.88;;;;;;;;;;5093234;28;20464;-69
2021/03/29 12:33:28;;;;;;;5.63;1.95;;;;;;;;;;5094528;28;20020;-69
2021/03/29 12:35:54;;;;;;;4.85;1.63;;;;;;;;;;5094660;28;20020;-69
2021/03/29 12:38:21;;;;;;;5.75;1.60;;;;;;;;;;5088876;28;20116;-69
2021/03/29 12:40:46;;;;;;;3.88;1.75;;;;;;;;;;5091841;28;20020;-69
2021/03/29 12:43:17;;;;;;;4.05;1.80;;;;;;;;;;5085270;28;20099;-68
2021/03/29 12:45:44;;;;;;;5.32;2.00;;;;;;;;;;5093006;28;20020;-69
2021/03/29 12:48:13;;;;;;;5.88;2.10;;;;;;;;;;5087638;28;20024;-69
2021/03/29 12:50:39;;;;;;;5.25;1.83;;;;;;;;;;5090354;28;20487;-69
2021/03/29 12:53:04;;;;;;;5.63;1.90;;;;;;;;;;5092386;28;20055;-69
2021/03/29 12:55:30;;;;;;;5.63;2.20;;;;;;;;;;5094233;28;20059;-69
2021/03/29 12:57:56;;;;;;;4.35;1.90;;;;;;;;;;5094139;28;20012;-69
2021/03/29 13:00:23;;;;;;;4.90;1.90;;;;;;;;;;5088494;28;20465;-70
2021/03/29 13:02:52;;;;;;;4.25;1.80;;;;;;;;;;5093492;28;20031;-69
2021/03/29 13:05:31;;;;;;;8.77;1.83;;;;;;;;;;5091858;28;20020;-69
2021/03/29 13:08:03;;;;;;;6.53;1.85;;;;;;;;;;5087948;28;20021;-69
2021/03/29 13:13:03;;;;;;;5.45;1.55;;;;;;;;;;5074293;28;20048;-69
2021/03/29 13:15:29;;;;;;;6.15;2.13;;;;;;;;;;5089107;28;20016;-69
2021/03/29 13:17:54;;;;;;;6.13;2.17;;;;;;;;;;5092940;28;20039;-69
2021/03/29 13:20:21;;;;;;;6.35;2.10;;;;;;;;;;5091947;28;20020;-69
2021/03/29 13:22:47;;;;;;;5.45;2.28;;;;;;;;;;5093175;28;20271;-69
2021/03/29 13:25:17;;;;;;;4.55;1.95;;;;;;;;;;5091389;28;20028;-69
2021/03/29 13:27:42;;;;;;;4.07;2.00;;;;;;;;;;5086450;28;20052;-69
2021/03/29 13:30:09;;;;;;;5.22;1.98;;;;;;;;;;5087894;28;20062;-69
2021/03/29 13:32:34;;;;;;;6.15;1.80;;;;;;;;;;5085358;28;20107;-69
2021/03/29 13:34:59;;;;;;;4.57;1.92;;;;;;;;;;5092539;28;20107;-69
2021/03/29 13:37:25;;;;;;;5.35;1.60;;;;;;;;;;5093403;28;20032;-69
2021/03/29 13:39:52;;;;;;;7.43;2.45;;;;;;;;;;5086199;28;20024;-69
2021/03/29 13:42:17;;;;;;;5.40;2.03;;;;;;;;;;5093601;28;20375;-69
2021/03/29 13:44:43;;;;;;;5.25;1.90;;;;;;;;;;5090719;28;20024;-69
2021/03/29 13:47:08;;;;;;;4.85;1.65;;;;;;;;;;5087841;28;20020;-69
2021/03/29 13:49:34;;;;;;;5.20;2.03;;;;;;;;;;5093578;28;20024;-69
2021/03/29 13:52:00;;;;;;;5.53;2.33;;;;;;;;;;5092193;28;20054;-69
2021/03/29 13:54:26;;;;;;;5.10;1.98;;;;;;;;;;5092409;28;20495;-69
2021/03/29 13:56:51;;;;;;;6.13;2.00;;;;;;;;;;5093356;28;20044;-69
2021/03/29 13:59:49;;;;;;;3.83;1.58;;;;;;;;;;5091820;28;20028;-69
2021/03/29 14:02:14;;;;;;;5.53;1.77;;;;;;;;;;5042033;28;20519;-69
2021/03/29 14:04:42;;;;;;;5.20;1.73;;;;;;;;;;5091847;28;20130;-69
2021/03/29 14:07:08;;;;;;;6.20;1.80;;;;;;;;;;5090352;28;20392;-69
2021/03/29 14:09:34;;;;;;;7.40;2.20;;;;;;;;;;5093076;28;20030;-69
2021/03/29 14:11:59;;;;;;;5.13;1.90;;;;;;;;;;5092774;28;20040;-69
2021/03/29 14:14:25;;;;;;;5.38;1.90;;;;;;;;;;5091743;28;20031;-69
2021/03/29 14:16:51;;;;;;;6.00;1.92;;;;;;;;;;5088824;28;20061;-69
2021/03/29 14:19:19;;;;;;;7.25;2.45;;;;;;;;;;5078941;28;20057;-69
2021/03/29 14:21:45;;;;;;;5.97;1.88;;;;;;;;;;5092439;28;20044;-69
2021/03/29 14:24:10;;;;;;;6.20;1.83;;;;;;;;;;5092088;28;20027;-69
2021/03/29 14:26:36;;;;;;;6.25;1.80;;;;;;;;;;5092950;28;20099;-69
2021/03/29 14:29:02;;;;;;;3.40;1.50;;;;;;;;;;5092614;28;20407;-69
2021/03/29 14:31:27;;;;;;;6.78;2.33;;;;;;;;;;5089921;28;20044;-69
2021/03/29 14:33:52;;;;;;;5.10;1.90;;;;;;;;;;5074687;28;20445;-69
2021/03/29 14:41:58;;;;;;;7.18;2.03;;;;;;;;;;5042518;28;20047;-69
2021/03/29 14:46:52;;;;;;;8.75;2.20;;;;;;;;;;5078708;28;20028;-69
2021/03/29 14:49:17;;;;;;;6.60;2.15;;;;;;;;;;5086859;28;20396;-69
2021/03/29 14:51:42;;;;;;;4.45;1.90;;;;;;;;;;5089172;28;20036;-70
2021/03/29 14:54:08;;;;;;;5.80;2.00;;;;;;;;;;5086855;28;20038;-68
2021/03/29 14:56:33;;;;;;;8.90;2.63;;;;;;;;;;5085444;28;20024;-68
2021/03/29 14:58:58;;;;;;;6.85;2.05;;;;;;;;;;5081139;28;20741;-69
2021/03/29 15:01:24;;;;;;;5.68;2.20;;;;;;;;;;5081975;28;20499;-69
2021/03/29 15:03:52;;;;;;;6.55;1.85;;;;;;;;;;5080341;28;20499;-69
2021/03/29 15:06:30;;;;;;;5.38;2.05;;;;;;;;;;5084121;28;20101;-69
2021/03/29 15:08:56;;;;;;;7.70;2.03;;;;;;;;;;5084408;28;20051;-68